createdAt,value
2019-03-24T15:02:40.782Z,39.85
2019-03-24T15:05:11.437Z,40.23
2019-03-24T15:07:42.355Z,41.55
2019-03-24T15:10:13.295Z,40.33
2019-03-24T15:12:43.887Z,39.48
2019-03-24T15:15:14.558Z,40.98
2019-03-24T15:17:45.444Z,39.83
2019-03-24T15:20:16.038Z,40.83
2019-03-24T15:22:46.962Z,39.67
2019-03-24T15:25:17.668Z,40.92
2019-03-24T15:27:48.629Z,40.58
2019-03-24T15:30:19.238Z,40.35
2019-03-24T15:32:49.187Z,39.05
2019-03-24T15:35:19.919Z,40.43
2019-03-24T15:37:51.862Z,39.65
2019-03-24T15:40:22.276Z,40.40
2019-03-24T15:42:53.212Z,41.10
2019-03-24T15:45:23.570Z,40.70
2019-03-24T15:47:54.378Z,41.42
2019-03-24T15:50:25.365Z,41.68
2019-03-24T15:52:56.434Z,41.50
2019-03-24T15:55:27.797Z,40.63
2019-03-24T15:57:58.772Z,39.80
2019-03-24T16:00:49.644Z,42.38
2019-03-24T16:03:20.814Z,42.23
2019-03-24T16:05:50.783Z,41.20
2019-03-24T16:08:22.020Z,41.85
2019-03-24T16:10:52.388Z,42.45
2019-03-24T16:13:23.311Z,44.15
2019-03-24T16:15:53.603Z,44.40
2019-03-24T16:18:24.340Z,45.10
2019-03-24T16:20:55.550Z,42.45
2019-03-24T16:23:26.177Z,41.10
2019-03-24T16:25:56.706Z,44.30
2019-03-24T16:28:27.666Z,42.78
2019-03-24T16:30:58.297Z,43.30
2019-03-24T16:33:28.917Z,42.95
2019-03-24T16:36:00.227Z,44.60
2019-03-24T16:38:31.291Z,44.50
2019-03-24T16:41:01.941Z,44.67
2019-03-24T16:43:32.959Z,44.65
2019-03-24T16:46:04.400Z,44.75
2019-03-24T16:48:37.108Z,44.33
2019-03-24T16:51:07.557Z,45.20
2019-03-24T16:53:38.624Z,43.48
2019-03-24T16:56:09.590Z,43.83
2019-03-24T16:58:39.839Z,43.75
2019-03-24T17:01:09.779Z,47.25
2019-03-24T17:03:40.524Z,45.58
2019-03-24T17:06:11.153Z,43.55
2019-03-24T17:08:42.265Z,55.25
2019-03-24T17:11:12.704Z,44.42
2019-03-24T17:13:43.659Z,44.77
2019-03-24T17:16:14.347Z,43.50
2019-03-24T17:18:45.829Z,44.00
2019-03-24T17:21:16.643Z,43.45
2019-03-24T17:26:32.011Z,42.43
2019-03-24T17:29:01.950Z,42.08
2019-03-24T17:31:32.111Z,42.27
2019-03-24T17:34:03.417Z,45.55
2019-03-24T17:36:34.349Z,43.48
2019-03-24T17:39:06.875Z,42.53
2019-03-24T17:41:37.497Z,42.25
2019-03-24T17:44:08.570Z,42.00
2019-03-24T17:46:40.529Z,42.30
2019-03-24T17:49:14.176Z,43.78
2019-03-24T17:51:45.195Z,43.38
2019-03-24T17:54:16.344Z,41.18
2019-03-24T17:56:47.412Z,42.40
2019-03-24T17:59:18.127Z,42.38
2019-03-24T18:01:48.917Z,42.38
2019-03-24T18:04:24.546Z,43.68
2019-03-24T18:06:52.720Z,42.05
2019-03-24T18:09:23.889Z,43.15
2019-03-24T18:11:54.995Z,43.45
2019-03-24T18:14:25.771Z,45.20
2019-03-24T18:16:57.274Z,43.25
2019-03-24T18:19:28.309Z,43.83
2019-03-24T18:21:59.351Z,43.98
2019-03-24T18:24:30.300Z,50.15
2019-03-24T18:27:00.991Z,50.35
2019-03-24T18:29:32.349Z,48.23
2019-03-24T18:32:03.295Z,49.90
2019-03-24T18:34:34.353Z,49.10
2019-03-24T18:37:05.374Z,48.75
2019-03-24T18:39:36.029Z,47.90
2019-03-24T18:42:07.066Z,48.65
2019-03-24T18:44:38.241Z,48.45
2019-03-24T18:47:09.339Z,47.45
2019-03-24T18:49:40.079Z,46.33
2019-03-24T18:52:10.023Z,46.00
2019-03-24T18:54:41.589Z,46.18
2019-03-24T18:57:12.944Z,50.05
2019-03-24T18:59:43.903Z,48.15
2019-03-24T19:02:14.562Z,48.83
2019-03-24T19:04:46.003Z,49.65
2019-03-24T19:07:17.096Z,47.30
2019-03-24T19:09:47.795Z,49.00
2019-03-24T19:12:18.843Z,48.02
2019-03-24T19:14:50.164Z,48.30
2019-03-24T19:17:21.156Z,48.17
2019-03-24T19:19:52.371Z,47.48
2019-03-24T19:22:33.327Z,48.92
2019-03-24T19:24:55.719Z,46.05
2019-03-24T19:27:26.000Z,48.55
2019-03-24T19:29:57.341Z,49.20
2019-03-24T19:32:28.417Z,46.35
2019-03-24T19:34:59.555Z,47.23
2019-03-24T19:37:33.182Z,45.88
2019-03-24T19:40:04.072Z,48.08
2019-03-24T19:42:35.082Z,48.90
2019-03-24T19:45:06.559Z,48.38
2019-03-24T19:47:37.796Z,48.25
2019-03-24T19:50:08.900Z,48.33
2019-03-24T19:52:44.532Z,45.85
2019-03-24T19:55:11.601Z,48.25
2019-03-24T19:57:42.007Z,48.05
2019-03-24T20:00:13.121Z,46.42
2019-03-24T20:02:44.214Z,47.48
2019-03-24T20:05:14.813Z,46.68
2019-03-24T20:07:48.226Z,48.17
2019-03-24T20:10:18.315Z,47.70
2019-03-24T20:12:49.566Z,48.92
2019-03-24T20:15:20.273Z,46.98
2019-03-24T20:17:51.530Z,48.08
2019-03-24T20:20:22.979Z,49.13
2019-03-24T20:22:56.882Z,46.40
2019-03-24T20:25:27.622Z,48.10
2019-03-24T20:27:58.064Z,46.45
2019-03-24T20:30:29.158Z,46.80
2019-03-24T20:32:59.823Z,48.63
2019-03-24T20:35:30.626Z,47.05
2019-03-24T20:38:01.207Z,48.68
2019-03-24T20:40:32.232Z,47.15
2019-03-24T20:43:02.448Z,47.50
2019-03-24T20:45:33.910Z,47.33
2019-03-24T20:48:05.276Z,47.17
2019-03-24T20:50:35.982Z,47.40
2019-03-24T20:53:17.650Z,46.75
2019-03-24T20:55:38.096Z,46.77
2019-03-24T20:58:09.524Z,46.45
